Time;durP1;ratioP1;P1;durP2;ratioP2;P2;SDS_P1;SDS_P2;PMS_P1;PMS_P2;Temp;Humidity;BMP_temperature;BMP_pressure;BME280_temperature;BME280_humidity;BME280_pressure;Samples;Min_cycle;Max_cycle;Signal;HPM_P1;HPM_P2
2023/06/13 00:02:20;;;;;;;2.58;1.80;;;17.90;88.30;;;;;;5005269;28;20042;-84
2023/06/13 00:04:48;;;;;;;6.95;1.70;;;17.80;88.50;;;;;;4988692;28;20046;-83
2023/06/13 00:07:13;;;;;;;2.63;1.70;;;17.80;88.80;;;;;;4987826;28;20042;-84
2023/06/13 00:09:39;;;;;;;5.80;1.85;;;17.80;89.10;;;;;;5005985;28;20049;-85
2023/06/13 00:12:05;;;;;;;5.28;1.95;;;17.70;89.30;;;;;;4971889;28;20046;-85
2023/06/13 00:14:31;;;;;;;4.38;1.60;;;17.60;89.40;;;;;;4987637;28;20045;-85
2023/06/13 00:16:58;;;;;;;6.15;2.10;;;17.60;89.80;;;;;;4953234;28;20058;-85
2023/06/13 00:19:24;;;;;;;2.33;1.80;;;17.60;90.00;;;;;;4986405;28;20137;-85
2023/06/13 00:21:50;;;;;;;6.03;1.65;;;17.50;90.10;;;;;;4971948;28;20145;-85
2023/06/13 00:24:16;;;;;;;4.40;1.75;;;17.50;90.20;;;;;;4986543;28;20259;-85
2023/06/13 00:26:42;;;;;;;5.05;1.85;;;17.40;90.20;;;;;;4970955;28;20550;-85
2023/06/13 00:29:07;;;;;;;4.72;2.05;;;17.70;90.30;;;;;;4986299;28;20065;-85
2023/06/13 00:31:33;;;;;;;8.98;1.95;;;17.40;90.30;;;;;;4954324;28;20050;-85
2023/06/13 00:34:00;;;;;;;3.33;1.77;;;17.40;90.30;;;;;;4988633;28;20049;-86
2023/06/13 00:36:32;;;;;;;6.10;2.20;;;17.40;90.30;;;;;;4985833;28;20069;-85
2023/06/13 00:38:58;;;;;;;3.03;1.90;;;17.40;90.40;;;;;;4988829;28;20045;-85
2023/06/13 00:41:24;;;;;;;6.50;1.98;;;17.40;90.30;;;;;;4985963;28;20286;-85
2023/06/13 00:43:50;;;;;;;3.38;2.17;;;17.30;90.30;;;;;;4971043;28;20125;-85
2023/06/13 00:46:28;;;;;;;4.80;2.38;;;17.30;90.40;;;;;;4954235;28;20050;-85
2023/06/13 00:48:57;;;;;;;7.10;2.58;;;17.30;90.40;;;;;;4986055;28;20160;-85
2023/06/13 00:51:23;;;;;;;3.63;2.30;;;17.20;90.30;;;;;;4988508;28;20049;-85
2023/06/13 00:53:51;;;;;;;4.32;2.10;;;17.30;90.40;;;;;;4986995;28;20058;-85
2023/06/13 00:56:16;;;;;;;6.22;2.20;;;17.20;90.40;;;;;;4988053;28;20517;-85
2023/06/13 00:58:42;;;;;;;3.33;2.25;;;17.20;90.40;;;;;;4985531;28;20042;-85
2023/06/13 01:01:09;;;;;;;5.47;2.25;;;17.10;90.20;;;;;;4986323;28;20077;-84
2023/06/13 01:03:36;;;;;;;5.50;2.20;;;17.20;90.70;;;;;;4986373;28;20051;-85
2023/06/13 01:06:03;;;;;;;5.28;2.53;;;17.10;90.40;;;;;;4987354;28;20053;-85
2023/06/13 01:08:29;;;;;;;2.97;1.83;;;18.80;90.80;;;;;;4987025;28;20406;-85
2023/06/13 01:11:20;;;;;;;6.90;2.88;;;17.10;90.40;;;;;;4985139;28;20050;-85
2023/06/13 01:14:03;;;;;;;4.85;2.55;;;17.10;90.50;;;;;;4987952;28;20457;-85
2023/06/13 01:16:41;;;;;;;3.72;2.58;;;17.10;90.40;;;;;;4970361;28;20057;-85
2023/06/13 01:19:28;;;;;;;5.25;2.60;;;17.00;90.30;;;;;;4988443;28;20563;-85
2023/06/13 01:21:56;;;;;;;5.78;2.60;;;17.00;90.30;;;;;;5007958;28;20512;-84
2023/06/13 01:24:54;;;;;;;6.13;2.72;;;17.00;90.30;;;;;;4988981;28;20046;-85
2023/06/13 01:27:22;;;;;;;4.80;2.83;;;17.00;90.40;;;;;;4954198;28;20134;-85
2023/06/13 01:29:50;;;;;;;7.70;3.17;;;17.00;90.30;;;;;;5006436;28;20050;-85
2023/06/13 01:32:17;;;;;;;4.20;2.92;;;17.00;90.30;;;;;;4988310;28;20577;-85
2023/06/13 01:34:45;;;;;;;3.58;2.10;;;17.00;90.30;;;;;;5007198;28;20065;-85
2023/06/13 01:37:11;;;;;;;6.32;2.75;;;16.90;90.40;;;;;;4956308;28;20042;-85
2023/06/13 01:39:36;;;;;;;5.43;2.95;;;16.90;90.40;;;;;;4989026;28;20046;-84
2023/06/13 01:42:02;;;;;;;5.70;2.88;;;16.80;90.50;;;;;;5006524;28;20505;-85
2023/06/13 01:44:29;;;;;;;7.95;2.80;;;16.80;90.60;;;;;;4988574;28;20045;-85
2023/06/13 01:47:14;;;;;;;4.22;2.60;;;16.70;90.70;;;;;;4989407;28;20061;-84
2023/06/13 01:49:39;;;;;;;8.75;2.63;;;16.70;91.10;;;;;;4987856;28;20104;-86
2023/06/13 01:52:18;;;;;;;7.15;3.20;;;16.60;91.00;;;;;;5006926;28;20045;-84
2023/06/13 01:54:50;;;;;;;4.18;2.90;;;16.60;91.30;;;;;;5006070;28;20145;-84
2023/06/13 01:57:19;;;;;;;;;;;16.50;91.30;;;;;;5006884;28;20042;-84
2023/06/13 01:59:49;;;;;;;4.75;2.10;;;16.50;91.70;;;;;;5005269;28;19925;-84
2023/06/13 02:02:15;;;;;;;8.30;2.92;;;16.40;91.50;;;;;;5005883;28;20042;-85
2023/06/13 02:04:43;;;;;;;4.80;2.80;;;16.30;91.70;;;;;;4988948;28;20042;-86
2023/06/13 02:07:10;;;;;;;3.95;2.58;;;16.20;91.90;;;;;;4987800;28;20038;-85
2023/06/13 02:09:36;;;;;;;7.75;3.05;;;16.20;92.20;;;;;;5006329;28;20072;-85
2023/06/13 02:12:02;;;;;;;3.40;1.98;;;16.10;92.30;;;;;;4988595;28;20110;-85
2023/06/13 02:14:32;;;;;;;5.30;2.38;;;16.00;92.60;;;;;;4956607;28;20395;-85
2023/06/13 02:16:59;;;;;;;2.78;2.03;;;15.90;92.80;;;;;;4956945;28;20410;-85
2023/06/13 02:19:25;;;;;;;4.75;2.40;;;15.90;93.00;;;;;;4971208;28;20049;-86
2023/06/13 02:21:51;;;;;;;3.85;2.05;;;15.80;93.50;;;;;;4972735;28;20050;-85
2023/06/13 02:24:18;;;;;;;7.97;2.63;;;15.80;93.40;;;;;;5005647;28;20053;-86
2023/06/13 02:26:45;;;;;;;4.80;2.30;;;15.70;93.50;;;;;;4988244;28;20086;-86
2023/06/13 02:29:11;;;;;;;3.33;2.00;;;15.70;93.60;;;;;;4988306;28;20508;-86
2023/06/13 02:31:38;;;;;;;3.95;2.10;;;15.70;93.70;;;;;;4988260;28;20042;-86
2023/06/13 02:34:04;;;;;;;3.75;2.25;;;15.60;93.80;;;;;;4988942;28;20388;-87
2023/06/13 02:36:30;;;;;;;3.85;2.30;;;15.60;93.80;;;;;;5004611;28;20609;-86
2023/06/13 02:38:56;;;;;;;3.25;1.70;;;15.60;93.80;;;;;;4972635;28;20133;-86
2023/06/13 02:41:22;;;;;;;4.03;2.88;;;15.60;93.80;;;;;;5022298;28;20483;-86
2023/06/13 02:43:47;;;;;;;5.75;2.80;;;15.60;93.80;;;;;;4988226;28;20042;-86
2023/06/13 02:46:13;;;;;;;4.45;2.03;;;15.60;93.70;;;;;;4987799;28;20054;-86
2023/06/13 02:48:39;;;;;;;3.67;2.33;;;15.60;93.70;;;;;;4987678;28;20558;-86
2023/06/13 02:51:07;;;;;;;3.58;2.25;;;15.60;93.60;;;;;;5006208;28;20151;-86
2023/06/13 02:53:34;;;;;;;5.75;2.30;;;15.60;93.70;;;;;;4987629;28;20037;-87
2023/06/13 02:56:00;;;;;;;2.72;2.13;;;15.60;93.50;;;;;;4955753;28;20053;-86
2023/06/13 02:58:25;;;;;;;4.50;2.42;;;15.60;93.40;;;;;;4986976;28;20119;-87
2023/06/13 03:00:51;;;;;;;4.90;2.35;;;15.60;93.40;;;;;;4987771;28;20038;-86
2023/06/13 03:03:18;;;;;;;4.35;2.25;;;15.60;93.30;;;;;;4971137;28;20054;-86
2023/06/13 03:05:47;;;;;;;3.38;2.20;;;15.60;93.30;;;;;;4971221;28;20049;-86
2023/06/13 03:08:18;;;;;;;4.50;2.00;;;15.60;93.20;;;;;;4987982;28;20077;-87
2023/06/13 03:10:44;;;;;;;6.85;2.58;;;15.60;93.10;;;;;;4971048;28;20038;-87
2023/06/13 03:13:11;;;;;;;3.65;2.42;;;15.60;92.90;;;;;;4972042;28;20113;-86
2023/06/13 03:15:37;;;;;;;4.00;2.13;;;16.80;93.00;;;;;;4970549;28;20057;-86
2023/06/13 03:18:03;;;;;;;5.55;2.40;;;15.70;92.60;;;;;;4971352;28;20502;-87
2023/06/13 03:20:30;;;;;;;3.45;1.73;;;15.70;92.50;;;;;;5055278;28;20050;-87
2023/06/13 03:22:56;;;;;;;4.38;2.00;;;15.70;92.30;;;;;;4987595;28;20048;-87
2023/06/13 03:25:22;;;;;;;4.90;2.45;;;15.70;92.20;;;;;;4987903;28;20061;-87
2023/06/13 03:27:48;;;;;;;3.30;1.92;;;15.80;92.10;;;;;;4970830;28;20144;-87
2023/06/13 03:30:14;;;;;;;6.38;2.22;;;15.80;92.00;;;;;;4990229;28;20054;-86
2023/06/13 03:32:40;;;;;;;3.88;2.50;;;15.80;91.90;;;;;;4973082;28;20050;-87
2023/06/13 03:35:06;;;;;;;3.17;2.05;;;15.80;91.80;;;;;;4973674;28;20115;-87
2023/06/13 03:37:32;;;;;;;6.20;2.38;;;15.80;91.70;;;;;;4989452;28;20121;-87
2023/06/13 03:39:58;;;;;;;4.22;2.60;;;15.80;91.60;;;;;;4989257;28;20105;-87
2023/06/13 03:42:23;;;;;;;3.35;2.13;;;15.80;91.60;;;;;;4957525;28;20046;-87
2023/06/13 03:44:49;;;;;;;4.97;2.15;;;15.80;91.50;;;;;;4972780;28;20046;-86
2023/06/13 03:47:16;;;;;;;3.92;2.03;;;15.80;91.40;;;;;;5008258;28;20057;-86
2023/06/13 03:49:42;;;;;;;6.13;2.38;;;15.80;91.30;;;;;;4988860;28;20049;-87
2023/06/13 03:52:08;;;;;;;3.90;1.98;;;15.80;91.30;;;;;;4974931;28;20414;-87
2023/06/13 03:54:34;;;;;;;4.65;2.70;;;15.80;91.20;;;;;;4992678;28;20042;-86
2023/06/13 03:57:00;;;;;;;3.65;2.15;;;15.80;91.00;;;;;;4960024;28;20087;-86
2023/06/13 03:59:26;;;;;;;3.10;2.03;;;15.80;91.00;;;;;;4992677;28;20138;-86
2023/06/13 04:01:51;;;;;;;5.70;2.47;;;15.80;91.00;;;;;;4975480;28;20046;-85
2023/06/13 04:04:17;;;;;;;2.70;2.13;;;15.80;90.90;;;;;;5061886;28;20080;-87
2023/06/13 04:06:47;;;;;;;4.10;2.53;;;15.80;90.90;;;;;;4960041;28;20050;-88
2023/06/13 04:09:13;;;;;;;5.03;1.90;;;15.80;90.90;;;;;;4959977;28;20099;-86
2023/06/13 04:11:39;;;;;;;3.85;2.60;;;15.80;91.00;;;;;;4990377;28;20081;-85
2023/06/13 04:14:05;;;;;;;5.43;2.65;;;15.80;91.00;;;;;;4974200;28;20081;-89
2023/06/13 04:16:30;;;;;;;4.07;2.30;;;15.90;91.20;;;;;;4973873;28;20038;-86
2023/06/13 04:18:56;;;;;;;5.18;2.50;;;15.80;91.30;;;;;;4957359;28;20046;-87
2023/06/13 04:21:25;;;;;;;5.05;2.78;;;15.80;91.40;;;;;;4975017;28;20045;-87
2023/06/13 04:23:52;;;;;;;3.00;1.90;;;15.80;91.50;;;;;;4974109;28;20046;-85
2023/06/13 04:26:18;;;;;;;3.72;1.83;;;15.80;91.50;;;;;;5008166;28;20077;-86
2023/06/13 04:28:45;;;;;;;2.97;1.95;;;15.80;91.70;;;;;;5075330;28;20050;-87
2023/06/13 04:31:12;;;;;;;4.22;2.90;;;15.80;91.80;;;;;;4990160;28;20038;-88
2023/06/13 04:33:45;;;;;;;4.28;2.22;;;15.80;91.90;;;;;;4974772;28;20038;-88
2023/06/13 04:36:12;;;;;;;3.65;2.08;;;15.80;91.90;;;;;;4989113;28;20097;-87
2023/06/13 04:38:39;;;;;;;3.83;2.35;;;15.80;92.00;;;;;;4990764;28;20050;-87
2023/06/13 04:41:13;;;;;;;3.65;2.00;;;15.90;92.10;;;;;;5074993;28;20034;-87
2023/06/13 04:43:41;;;;;;;5.15;2.38;;;15.90;92.20;;;;;;4989512;28;20183;-85
2023/06/13 04:46:10;;;;;;;4.43;2.70;;;15.90;92.30;;;;;;4973025;28;20486;-87
2023/06/13 04:48:37;;;;;;;3.70;2.45;;;15.90;92.30;;;;;;4989692;28;20091;-87
2023/06/13 04:51:09;;;;;;;8.73;2.50;;;16.00;92.50;;;;;;4957107;28;20045;-95
2023/06/13 04:53:37;;;;;;;4.75;2.20;;;16.00;92.60;;;;;;4957473;28;20125;-87
2023/06/13 04:56:04;;;;;;;6.95;2.80;;;16.10;92.70;;;;;;4989737;28;20382;-86
2023/06/13 04:58:30;;;;;;;6.35;3.17;;;16.10;92.70;;;;;;4988792;28;20038;-92
2023/06/13 05:00:58;;;;;;;3.67;2.58;;;16.20;92.90;;;;;;4957559;28;20060;-88
2023/06/13 05:03:25;;;;;;;5.88;2.75;;;16.20;93.00;;;;;;4989909;28;20050;-90
2023/06/13 05:05:51;;;;;;;4.70;2.67;;;16.30;93.00;;;;;;4973131;28;20056;-88
2023/06/13 05:08:21;;;;;;;4.57;2.78;;;16.40;93.10;;;;;;4973948;28;20486;-86
2023/06/13 05:10:47;;;;;;;5.00;2.50;;;16.40;93.20;;;;;;4988425;28;20046;-90
2023/06/13 05:13:14;;;;;;;4.35;2.42;;;16.50;93.30;;;;;;4973715;28;20383;-83
2023/06/13 05:15:42;;;;;;;12.13;2.60;;;16.60;93.20;;;;;;5006319;28;20038;-86
2023/06/13 05:18:12;;;;;;;6.32;2.50;;;16.60;93.20;;;;;;4973371;28;20092;-86
2023/06/13 05:20:39;;;;;;;7.25;2.15;;;16.70;93.20;;;;;;4989514;28;20061;-84
2023/06/13 05:23:05;;;;;;;6.43;2.25;;;16.80;93.20;;;;;;4988536;28;20061;-87
2023/06/13 05:25:31;;;;;;;6.88;3.42;;;16.90;93.10;;;;;;4973426;28;20478;-87
2023/06/13 05:27:57;;;;;;;8.13;2.58;;;17.00;92.90;;;;;;4988024;28;20053;-87
2023/06/13 05:30:23;;;;;;;4.40;2.25;;;17.10;92.60;;;;;;4989285;28;20081;-87
2023/06/13 05:32:48;;;;;;;2.83;1.90;;;17.20;92.00;;;;;;5005773;28;20435;-87
2023/06/13 05:35:14;;;;;;;3.55;2.22;;;17.30;91.80;;;;;;5006497;28;20057;-87
2023/06/13 05:37:40;;;;;;;2.67;1.88;;;17.50;91.90;;;;;;5006674;28;20038;-85
2023/06/13 05:40:06;;;;;;;4.65;2.40;;;17.50;91.50;;;;;;4972471;28;20074;-86
2023/06/13 05:42:35;;;;;;;3.97;2.13;;;17.70;91.40;;;;;;4990195;28;20154;-86
2023/06/13 05:45:04;;;;;;;4.35;2.10;;;17.70;91.20;;;;;;5005296;28;20038;-87
2023/06/13 05:47:30;;;;;;;5.75;2.13;;;17.90;91.10;;;;;;4989821;28;20057;-90
2023/06/13 05:49:56;;;;;;;3.38;1.77;;;18.00;91.00;;;;;;4941009;28;20046;-88
2023/06/13 05:52:22;;;;;;;3.60;2.05;;;18.10;90.90;;;;;;4989080;28;20049;-87
2023/06/13 05:54:47;;;;;;;2.70;1.73;;;18.20;90.70;;;;;;4956667;28;20041;-89
2023/06/13 05:57:14;;;;;;;4.47;1.88;;;18.30;90.70;;;;;;4955952;28;20046;-89
2023/06/13 05:59:46;;;;;;;3.80;1.90;;;18.30;90.50;;;;;;4973360;28;20441;-88
2023/06/13 06:02:18;;;;;;;2.97;1.70;;;18.50;90.50;;;;;;4957298;28;20448;-88
2023/06/13 06:04:45;;;;;;;4.03;2.00;;;17.70;90.50;;;;;;4988871;28;20120;-88
2023/06/13 06:07:11;;;;;;;7.03;1.95;;;19.20;90.80;;;;;;4987739;28;20067;-92
2023/06/13 06:09:40;;;;;;;2.65;1.83;;;17.80;90.60;;;;;;4972655;28;20052;-88
2023/06/13 06:12:10;;;;;;;5.70;2.03;;;19.10;90.20;;;;;;4972579;28;20046;-89
2023/06/13 06:14:38;;;;;;;2.90;1.70;;;18.90;89.70;;;;;;4955573;28;20080;-89
2023/06/13 06:17:10;;;;;;;3.00;1.95;;;19.20;89.30;;;;;;4969603;28;20046;-89
2023/06/13 06:19:42;;;;;;;3.65;1.52;;;19.30;88.70;;;;;;4968197;28;20558;-89
2023/06/13 06:22:08;;;;;;;3.77;1.77;;;19.40;87.20;;;;;;4970314;28;20085;-90
2023/06/13 06:24:41;;;;;;;2.80;1.90;;;19.60;87.40;;;;;;4984829;28;20380;-90
2023/06/13 06:27:07;;;;;;;4.80;1.63;;;19.70;86.40;;;;;;4969012;28;20047;-90
2023/06/13 06:29:33;;;;;;;1.98;1.23;;;19.90;86.90;;;;;;4952641;28;20042;-90
2023/06/13 06:31:59;;;;;;;3.17;1.23;;;19.90;85.60;;;;;;4968969;28;20052;-89
2023/06/13 06:34:24;;;;;;;2.85;1.17;;;20.00;83.60;;;;;;4969144;28;20538;-88
2023/06/13 06:36:50;;;;;;;2.40;1.38;;;20.10;80.80;;;;;;5052741;28;20050;-87
2023/06/13 06:39:16;;;;;;;4.65;1.35;;;20.20;78.40;;;;;;4970276;28;20050;-93
2023/06/13 06:41:42;;;;;;;1.35;0.95;;;20.20;77.90;;;;;;4953542;28;20148;-93
2023/06/13 06:44:08;;;;;;;3.92;1.55;;;20.30;77.10;;;;;;5020734;28;20045;-90
2023/06/13 06:46:34;;;;;;;3.35;1.10;;;20.40;74.90;;;;;;5036422;28;20054;-90
2023/06/13 06:49:01;;;;;;;3.92;1.25;;;20.80;73.90;;;;;;4985267;28;20046;-91
2023/06/13 06:51:27;;;;;;;1.73;1.02;;;20.50;73.20;;;;;;4968781;28;20053;-89
2023/06/13 06:53:52;;;;;;;1.60;1.08;;;20.60;72.70;;;;;;4984177;28;20416;-90
2023/06/13 06:56:18;;;;;;;3.70;0.90;;;20.70;72.90;;;;;;4969178;28;20112;-91
2023/06/13 06:58:44;;;;;;;1.50;1.10;;;20.80;71.20;;;;;;5018651;28;20064;-89
2023/06/13 07:01:10;;;;;;;7.22;0.90;;;20.90;70.60;;;;;;4968668;28;20054;-89
2023/06/13 07:03:35;;;;;;;3.45;1.08;;;21.00;69.70;;;;;;4984436;28;20050;-88
2023/06/13 07:06:02;;;;;;;3.13;1.00;;;21.10;69.30;;;;;;4968761;28;20128;-89
2023/06/13 07:08:28;;;;;;;2.13;1.05;;;21.20;68.90;;;;;;4968256;28;20050;-88
2023/06/13 07:10:54;;;;;;;4.10;1.17;;;21.30;68.20;;;;;;4984084;28;20134;-90
2023/06/13 07:13:20;;;;;;;1.70;1.17;;;21.40;68.20;;;;;;4969012;28;20491;-89
2023/06/13 07:15:45;;;;;;;2.72;1.40;;;21.40;68.30;;;;;;4967276;28;20046;-91
2023/06/13 07:18:11;;;;;;;4.18;1.45;;;21.50;67.30;;;;;;4952215;28;20529;-87
2023/06/13 07:20:37;;;;;;;2.40;1.38;;;21.70;66.90;;;;;;4967227;28;20090;-89
2023/06/13 07:23:02;;;;;;;3.33;1.40;;;21.80;64.20;;;;;;4968246;28;20046;-89
2023/06/13 07:25:29;;;;;;;2.33;1.42;;;21.80;66.80;;;;;;4983734;28;20073;-90
2023/06/13 07:27:55;;;;;;;5.28;1.65;;;21.90;65.90;;;;;;4954324;28;20317;-89
2023/06/13 07:30:21;;;;;;;2.40;1.70;;;22.00;65.80;;;;;;4956365;28;20065;-90
2023/06/13 07:32:47;;;;;;;2.13;1.25;;;22.10;65.70;;;;;;4987169;28;20409;-88
2023/06/13 07:35:14;;;;;;;2.60;1.25;;;22.20;65.80;;;;;;4987825;28;20141;-88
2023/06/13 07:37:40;;;;;;;2.20;1.52;;;22.30;65.50;;;;;;4986529;28;20533;-87
2023/06/13 07:40:08;;;;;;;3.90;1.50;;;22.40;65.40;;;;;;4971935;28;20046;-86
2023/06/13 07:42:34;;;;;;;1.63;1.23;;;22.50;65.60;;;;;;4986770;28;20058;-87
2023/06/13 07:45:00;;;;;;;4.53;1.40;;;22.50;65.60;;;;;;4987688;28;20587;-89
2023/06/13 07:47:26;;;;;;;4.43;1.25;;;22.60;65.80;;;;;;4971564;28;20137;-88
2023/06/13 07:49:51;;;;;;;2.08;1.52;;;22.60;65.70;;;;;;4969974;28;20042;-89
2023/06/13 07:52:17;;;;;;;3.92;1.92;;;22.70;65.70;;;;;;4971458;28;20074;-88
2023/06/13 07:54:43;;;;;;;4.60;1.20;;;22.80;65.70;;;;;;4988032;28;20109;-89
2023/06/13 07:57:09;;;;;;;2.95;1.15;;;22.90;65.80;;;;;;4955202;28;20061;-87
2023/06/13 07:59:35;;;;;;;3.00;1.33;;;23.00;66.10;;;;;;4986604;28;20053;-87
2023/06/13 08:02:02;;;;;;;2.47;1.40;;;23.10;65.60;;;;;;4954969;28;20042;-89
2023/06/13 08:04:28;;;;;;;2.00;1.50;;;23.20;65.50;;;;;;5039870;28;20426;-90
2023/06/13 08:06:53;;;;;;;2.80;1.45;;;23.30;65.40;;;;;;4986173;28;20049;-91
2023/06/13 08:09:20;;;;;;;3.13;1.63;;;23.40;65.60;;;;;;5039554;28;20038;-93
2023/06/13 08:11:46;;;;;;;4.05;1.58;;;23.50;65.00;;;;;;4970371;28;20053;-90
2023/06/13 08:14:14;;;;;;;4.07;1.30;;;23.60;65.00;;;;;;5055960;28;20039;-91
2023/06/13 08:16:40;;;;;;;1.98;1.30;;;23.70;65.20;;;;;;5039173;28;20059;-91
2023/06/13 08:19:06;;;;;;;1.60;1.13;;;23.80;64.90;;;;;;4990062;28;20061;-89
2023/06/13 08:21:32;;;;;;;11.48;1.70;;;24.00;64.60;;;;;;4990704;28;20064;-88
2023/06/13 08:23:59;;;;;;;4.00;1.27;;;24.10;64.90;;;;;;5007158;28;20124;-90
2023/06/13 08:26:26;;;;;;;2.95;1.45;;;24.10;64.10;;;;;;4990455;28;20088;-89
2023/06/13 08:28:51;;;;;;;2.95;1.77;;;24.30;64.00;;;;;;4973625;28;20046;-89
2023/06/13 08:31:23;;;;;;;5.55;2.78;;;24.40;63.40;;;;;;4990451;28;20136;-90
2023/06/13 08:33:51;;;;;;;2.20;1.33;;;24.50;63.50;;;;;;4973217;28;20128;-89
2023/06/13 08:36:17;;;;;;;2.58;1.67;;;24.60;63.30;;;;;;5075368;28;20478;-90
2023/06/13 08:38:42;;;;;;;3.72;1.60;;;24.70;62.30;;;;;;4974184;28;20057;-90
2023/06/13 08:41:10;;;;;;;2.47;1.67;;;24.70;62.10;;;;;;4976038;28;20085;-88
2023/06/13 08:43:37;;;;;;;3.70;1.65;;;24.80;62.00;;;;;;4994296;28;20085;-93
2023/06/13 08:46:03;;;;;;;1.63;1.35;;;24.90;61.60;;;;;;4963515;28;20070;-89
2023/06/13 08:48:32;;;;;;;2.25;1.67;;;24.90;61.10;;;;;;4978909;28;20048;-91
2023/06/13 08:51:00;;;;;;;1.95;1.55;;;25.00;60.20;;;;;;4961699;28;20046;-88
2023/06/13 08:53:31;;;;;;;3.42;1.42;;;25.10;59.60;;;;;;4993002;28;20042;-84
2023/06/13 08:56:02;;;;;;;1.95;1.58;;;25.10;58.80;;;;;;5008551;28;20090;-85
2023/06/13 08:58:32;;;;;;;1.92;1.38;;;25.10;58.20;;;;;;5008188;28;20480;-85
2023/06/13 09:01:00;;;;;;;2.58;1.48;;;25.10;58.20;;;;;;4990866;28;20060;-84
2023/06/13 09:03:28;;;;;;;4.97;1.80;;;25.10;57.60;;;;;;5007104;28;20425;-84
2023/06/13 09:05:55;;;;;;;3.20;1.60;;;25.20;57.10;;;;;;5007216;28;20652;-84
2023/06/13 09:08:22;;;;;;;2.33;1.45;;;25.20;56.60;;;;;;5008051;28;20619;-89
2023/06/13 09:10:49;;;;;;;4.25;1.52;;;25.30;56.60;;;;;;4973443;28;20060;-85
2023/06/13 09:13:17;;;;;;;4.32;1.65;;;25.30;56.90;;;;;;4990041;28;20050;-84
2023/06/13 09:15:43;;;;;;;1.80;1.30;;;25.40;57.30;;;;;;5006183;28;20128;-86
2023/06/13 09:18:11;;;;;;;5.95;2.00;;;25.50;57.50;;;;;;5007107;28;20467;-85
2023/06/13 09:20:36;;;;;;;4.90;1.50;;;25.60;57.80;;;;;;4988806;28;20440;-86
2023/06/13 09:23:02;;;;;;;2.70;1.48;;;25.80;58.00;;;;;;4989251;28;20041;-86
2023/06/13 09:25:31;;;;;;;2.58;1.58;;;25.80;57.80;;;;;;5006290;28;20132;-86
2023/06/13 09:27:57;;;;;;;4.80;2.03;;;25.90;57.30;;;;;;5006318;28;20557;-85
2023/06/13 09:30:22;;;;;;;2.72;1.70;;;25.90;57.20;;;;;;4989420;28;20089;-84
2023/06/13 09:32:53;;;;;;;3.30;1.70;;;26.00;57.10;;;;;;5006056;28;20125;-85
2023/06/13 09:35:19;;;;;;;3.35;1.20;;;26.10;56.80;;;;;;5007049;28;20121;-85
2023/06/13 09:37:46;;;;;;;2.80;1.73;;;26.10;57.20;;;;;;4988250;28;20107;-86
2023/06/13 09:40:13;;;;;;;2.47;1.40;;;26.10;57.00;;;;;;4989075;28;20450;-86
2023/06/13 09:42:42;;;;;;;3.65;2.17;;;26.20;57.20;;;;;;4971998;28;20049;-85
2023/06/13 09:45:09;;;;;;;5.07;1.77;;;26.20;56.60;;;;;;5006396;28;20046;-85
2023/06/13 09:47:35;;;;;;;2.03;1.42;;;26.20;55.80;;;;;;5007283;28;20057;-85
2023/06/13 09:50:02;;;;;;;2.67;1.80;;;26.30;55.90;;;;;;5004339;28;20038;-85
2023/06/13 09:52:32;;;;;;;2.85;1.35;;;26.30;55.50;;;;;;4988885;28;20065;-85
2023/06/13 09:54:58;;;;;;;2.25;1.67;;;26.40;55.20;;;;;;4988145;28;20061;-86
2023/06/13 09:57:24;;;;;;;4.35;1.88;;;26.40;55.20;;;;;;5006182;28;20045;-86
2023/06/13 09:59:51;;;;;;;3.67;1.25;;;26.50;55.60;;;;;;5006031;28;20038;-85
2023/06/13 10:02:19;;;;;;;2.85;1.55;;;26.70;55.90;;;;;;5007207;28;20042;-85
2023/06/13 10:04:49;;;;;;;2.67;1.35;;;26.70;55.30;;;;;;4994555;28;20050;-85
2023/06/13 10:07:17;;;;;;;3.22;1.13;;;26.60;55.80;;;;;;4992838;28;20084;-85
2023/06/13 10:09:45;;;;;;;2.78;1.42;;;26.70;55.40;;;;;;4993773;28;20050;-86
2023/06/13 10:12:18;;;;;;;2.85;1.45;;;26.70;55.40;;;;;;5010280;28;20058;-85
2023/06/13 10:14:45;;;;;;;;;;;26.70;54.60;;;;;;4993121;28;20103;-86
2023/06/13 10:17:18;;;;;;;3.95;1.40;;;26.60;53.30;;;;;;4988345;28;19932;-86
2023/06/13 10:19:46;;;;;;;4.07;2.50;;;26.80;55.70;;;;;;4990048;28;20084;-85
2023/06/13 10:22:12;;;;;;;3.83;1.90;;;26.90;55.40;;;;;;4990536;28;20171;-86
2023/06/13 10:24:40;;;;;;;1.45;1.17;;;26.90;55.20;;;;;;4989566;28;20057;-85
2023/06/13 10:27:08;;;;;;;4.07;1.45;;;26.90;54.70;;;;;;4989226;28;20076;-85
2023/06/13 10:29:46;;;;;;;1.92;1.38;;;27.00;54.30;;;;;;4989745;28;20051;-89
2023/06/13 10:32:50;;;;;;;2.58;1.40;;;26.90;53.90;;;;;;4989024;28;20050;-89
2023/06/13 10:35:37;;;;;;;3.50;1.40;;;26.80;54.90;;;;;;4990015;28;20050;-89
2023/06/13 10:38:26;;;;;;;1.80;1.10;;;26.80;55.50;;;;;;4988958;28;20046;-87
2023/06/13 10:41:05;;;;;;;3.55;1.30;;;26.90;55.70;;;;;;4972980;28;20149;-87
2023/06/13 10:43:49;;;;;;;2.40;1.20;;;27.00;55.30;;;;;;4991618;28;20064;-89
2023/06/13 10:46:15;;;;;;;3.88;1.38;;;26.90;55.80;;;;;;4988740;28;20053;-87
2023/06/13 10:48:48;;;;;;;4.55;1.17;;;27.10;56.40;;;;;;4990658;28;20057;-88
2023/06/13 10:51:22;;;;;;;3.03;1.30;;;27.20;57.00;;;;;;4972272;28;20053;-88
2023/06/13 10:54:08;;;;;;;3.15;1.52;;;27.20;57.20;;;;;;4956583;28;20060;-89
2023/06/13 10:56:38;;;;;;;3.78;2.25;;;27.20;56.40;;;;;;4990703;28;20054;-91
2023/06/13 10:59:09;;;;;;;5.15;1.30;;;27.20;57.40;;;;;;4988294;28;20499;-88
2023/06/13 11:01:37;;;;;;;2.95;1.10;;;27.10;57.60;;;;;;4972694;28;20049;-89
2023/06/13 11:04:10;;;;;;;2.45;1.42;;;26.50;57.60;;;;;;4987920;28;20046;-89
2023/06/13 11:06:37;;;;;;;6.18;1.17;;;27.30;58.20;;;;;;4990593;28;20078;-91
2023/06/13 11:09:20;;;;;;;1.88;1.08;;;27.30;57.80;;;;;;4990006;28;20069;-88
2023/06/13 11:11:57;;;;;;;3.35;1.30;;;27.30;57.00;;;;;;4987424;28;20517;-88
2023/06/13 11:14:36;;;;;;;2.10;1.05;;;27.40;57.00;;;;;;4974324;28;20129;-94
2023/06/13 11:17:03;;;;;;;4.70;2.28;;;27.50;56.00;;;;;;4957874;28;20215;-92
2023/06/13 11:19:34;;;;;;;3.00;1.08;;;27.50;55.60;;;;;;4991369;28;20137;-93
2023/06/13 11:22:03;;;;;;;2.58;1.10;;;27.50;55.70;;;;;;4992398;28;20070;-91
2023/06/13 11:24:34;;;;;;;2.22;1.50;;;27.50;56.40;;;;;;4975478;28;20061;-92
2023/06/13 11:27:03;;;;;;;4.90;1.27;;;27.50;55.70;;;;;;4960543;28;20053;-94
2023/06/13 11:29:30;;;;;;;3.05;1.13;;;27.50;55.70;;;;;;4975726;28;20051;-93
2023/06/13 11:31:56;;;;;;;4.57;0.90;;;27.50;56.10;;;;;;4958284;28;20110;-92
2023/06/13 11:34:28;;;;;;;1.77;1.20;;;27.50;56.40;;;;;;4973163;28;20042;-92
2023/06/13 11:36:57;;;;;;;;;;;27.50;56.20;;;;;;4973666;28;20376;-92
2023/06/13 11:39:30;;;;;;;4.20;1.35;;;27.50;56.10;;;;;;4974114;28;19925;-91
2023/06/13 11:41:57;;;;;;;3.38;1.27;;;27.40;56.20;;;;;;4988142;28;20043;-85
2023/06/13 11:44:23;;;;;;;3.47;1.00;;;27.40;56.70;;;;;;4989027;28;20102;-87
2023/06/13 11:46:50;;;;;;;1.52;0.90;;;27.50;57.10;;;;;;4987674;28;20499;-84
2023/06/13 11:49:16;;;;;;;1.70;1.02;;;27.50;56.60;;;;;;4985194;28;20514;-86
2023/06/13 11:51:43;;;;;;;3.42;0.82;;;27.60;57.00;;;;;;4983770;28;20187;-85
2023/06/13 11:54:10;;;;;;;2.75;1.40;;;27.70;56.80;;;;;;4983630;28;20050;-85
2023/06/13 11:56:40;;;;;;;6.28;3.08;;;27.70;56.90;;;;;;4984525;28;20123;-85
2023/06/13 11:59:17;;;;;;;1.25;1.00;;;27.70;56.70;;;;;;4967510;28;20046;-85
2023/06/13 12:01:53;;;;;;;2.55;1.17;;;27.80;56.00;;;;;;4952681;28;20418;-89
2023/06/13 12:04:23;;;;;;;1.75;0.93;;;27.90;56.20;;;;;;4967418;28;20057;-88
2023/06/13 12:06:51;;;;;;;3.15;1.52;;;27.90;56.10;;;;;;4985628;28;20042;-88
2023/06/13 12:09:17;;;;;;;1.67;1.10;;;27.90;56.00;;;;;;4986816;28;20410;-88
2023/06/13 12:11:43;;;;;;;2.83;1.08;;;27.80;55.90;;;;;;4983978;28;20107;-87
2023/06/13 12:14:09;;;;;;;1.02;0.80;;;27.90;56.10;;;;;;4987035;28;20082;-89
2023/06/13 12:16:37;;;;;;;5.18;0.95;;;27.70;55.80;;;;;;4988279;28;20082;-89
2023/06/13 12:19:04;;;;;;;2.45;1.13;;;27.60;55.60;;;;;;4975044;28;20152;-89
2023/06/13 12:21:31;;;;;;;1.65;0.88;;;27.70;55.90;;;;;;4973942;28;20082;-88
2023/06/13 12:23:59;;;;;;;2.72;1.30;;;27.70;55.60;;;;;;4990226;28;20046;-88
2023/06/13 12:26:26;;;;;;;4.15;1.02;;;27.80;55.50;;;;;;4990764;28;20041;-89
2023/06/13 12:28:55;;;;;;;1.38;1.00;;;27.80;55.40;;;;;;4989968;28;20524;-88
2023/06/13 12:31:34;;;;;;;3.08;0.93;;;27.80;55.00;;;;;;4975072;28;20080;-88
2023/06/13 12:34:09;;;;;;;2.50;0.85;;;27.70;54.70;;;;;;4990338;28;20058;-90
2023/06/13 12:36:45;;;;;;;3.22;0.82;;;27.60;54.20;;;;;;4990377;28;20046;-89
2023/06/13 12:39:14;;;;;;;2.15;1.00;;;27.60;55.20;;;;;;4990803;28;20056;-89
2023/06/13 12:41:51;;;;;;;2.60;1.20;;;27.70;54.90;;;;;;4990042;28;20041;-88
2023/06/13 12:44:17;;;;;;;2.60;1.10;;;27.70;54.80;;;;;;4990328;28;20478;-89
2023/06/13 12:46:45;;;;;;;3.47;0.90;;;27.80;54.90;;;;;;4989406;28;20155;-88
2023/06/13 12:49:12;;;;;;;3.28;0.95;;;27.90;54.80;;;;;;4973863;28;20042;-88
2023/06/13 12:51:43;;;;;;;3.75;1.40;;;28.00;54.40;;;;;;4989941;28;20406;-89
2023/06/13 12:54:13;;;;;;;1.45;1.05;;;28.10;54.40;;;;;;5074592;28;20062;-88